sensor_id;sensor_type;location;lat;lon;timestamp;pressure;altitude;pressure_sealevel;temperature;humidity
49341;BME280;35209;51.050;13.678;2024-01-16T00:00:47;148637.88;;;-0.12;91.67
49341;BME280;35209;51.050;13.678;2024-01-16T00:05:49;148672.44;;;0.02;88.61
49341;BME280;35209;51.050;13.678;2024-01-16T00:10:51;148671.19;;;0.01;87.06
49341;BME280;35209;51.050;13.678;2024-01-16T00:15:52;148662.19;;;-0.03;88.70
49341;BME280;35209;51.050;13.678;2024-01-16T00:20:55;148682.69;;;0.06;88.70
49341;BME280;35209;51.050;13.678;2024-01-16T00:25:57;148662.19;;;-0.03;92.98
49341;BME280;35209;51.050;13.678;2024-01-16T00:30:58;148616.13;;;-0.21;100.00
49341;BME280;35209;51.050;13.678;2024-01-16T00:36:00;148555.94;;;-0.45;100.00
49341;BME280;35209;51.050;13.678;2024-01-16T00:41:02;148547.03;;;-0.48;100.00
49341;BME280;35209;51.050;13.678;2024-01-16T00:46:04;148566.19;;;-0.41;100.00
49341;BME280;35209;51.050;13.678;2024-01-16T00:51:06;148553.41;;;-0.46;100.00
49341;BME280;35209;51.050;13.678;2024-01-16T00:56:09;148540.63;;;-0.51;100.00
49341;BME280;35209;51.050;13.678;2024-01-16T01:01:11;148563.63;;;-0.42;100.00
49341;BME280;35209;51.050;13.678;2024-01-16T01:06:12;148547.03;;;-0.48;100.00
49341;BME280;35209;51.050;13.678;2024-01-16T01:11:14;148575.16;;;-0.37;100.00
49341;BME280;35209;51.050;13.678;2024-01-16T01:16:16;148584.13;;;-0.34;100.00
49341;BME280;35209;51.050;13.678;2024-01-16T01:21:18;148582.84;;;-0.34;100.00
49341;BME280;35209;51.050;13.678;2024-01-16T01:26:20;148554.69;;;-0.45;100.00
49341;BME280;35209;51.050;13.678;2024-01-16T01:31:22;148504.78;;;-0.65;100.00
49341;BME280;35209;51.050;13.678;2024-01-16T01:36:24;148498.38;;;-0.68;100.00
49341;BME280;35209;51.050;13.678;2024-01-16T01:41:26;148485.59;;;-0.73;100.00
49341;BME280;35209;51.050;13.678;2024-01-16T01:46:28;148461.28;;;-0.83;100.00
49341;BME280;35209;51.050;13.678;2024-01-16T01:51:30;148513.75;;;-0.62;100.00
49341;BME280;35209;51.050;13.678;2024-01-16T01:56:33;148538.06;;;-0.52;100.00
49341;BME280;35209;51.050;13.678;2024-01-16T02:01:35;148548.31;;;-0.48;100.00
49341;BME280;35209;51.050;13.678;2024-01-16T02:06:36;148578.97;;;-0.36;100.00
49341;BME280;35209;51.050;13.678;2024-01-16T02:11:39;148590.50;;;-0.31;98.18
49341;BME280;35209;51.050;13.678;2024-01-16T02:16:41;148605.88;;;-0.25;98.25
49341;BME280;35209;51.050;13.678;2024-01-16T02:21:49;148561.09;;;-0.43;100.00
49341;BME280;35209;51.050;13.678;2024-01-16T02:26:53;148573.88;;;-0.38;100.00
49341;BME280;35209;51.050;13.678;2024-01-16T02:31:55;148582.84;;;-0.34;100.00
49341;BME280;35209;51.050;13.678;2024-01-16T02:36:56;148578.97;;;-0.36;100.00
49341;BME280;35209;51.050;13.678;2024-01-16T02:41:58;148538.06;;;-0.52;100.00
49341;BME280;35209;51.050;13.678;2024-01-16T02:47:00;148545.72;;;-0.49;100.00
49341;BME280;35209;51.050;13.678;2024-01-16T02:52:02;148555.94;;;-0.45;100.00
49341;BME280;35209;51.050;13.678;2024-01-16T02:57:04;148536.78;;;-0.53;100.00
49341;BME280;35209;51.050;13.678;2024-01-16T03:02:06;148567.47;;;-0.40;100.00
49341;BME280;35209;51.050;13.678;2024-01-16T03:07:09;148555.94;;;-0.45;100.00
49341;BME280;35209;51.050;13.678;2024-01-16T03:12:11;148607.16;;;-0.24;100.00
49341;BME280;35209;51.050;13.678;2024-01-16T03:17:13;148616.13;;;-0.21;97.46
49341;BME280;35209;51.050;13.678;2024-01-16T03:22:15;148666.03;;;-0.01;93.45
49341;BME280;35209;51.050;13.678;2024-01-16T03:27:17;148678.81;;;0.04;93.33
49341;BME280;35209;51.050;13.678;2024-01-16T03:32:19;148701.84;;;0.13;92.47
49341;BME280;35209;51.050;13.678;2024-01-16T03:37:21;148680.13;;;0.05;93.10
49341;BME280;35209;51.050;13.678;2024-01-16T03:42:23;148683.97;;;0.06;99.73
49341;BME280;35209;51.050;13.678;2024-01-16T03:47:25;148607.16;;;-0.24;100.00
49341;BME280;35209;51.050;13.678;2024-01-16T03:52:27;148589.22;;;-0.32;100.00
49341;BME280;35209;51.050;13.678;2024-01-16T03:57:29;148572.59;;;-0.38;100.00
49341;BME280;35209;51.050;13.678;2024-01-16T04:02:31;148562.38;;;-0.42;100.00
49341;BME280;35209;51.050;13.678;2024-01-16T04:07:33;148557.22;;;-0.44;100.00
49341;BME280;35209;51.050;13.678;2024-01-16T04:12:35;148573.88;;;-0.38;100.00
49341;BME280;35209;51.050;13.678;2024-01-16T04:17:37;148558.53;;;-0.44;100.00
49341;BME280;35209;51.050;13.678;2024-01-16T04:22:39;148563.63;;;-0.42;100.00
49341;BME280;35209;51.050;13.678;2024-01-16T04:27:41;148580.31;;;-0.35;100.00
49341;BME280;35209;51.050;13.678;2024-01-16T04:32:42;148639.16;;;-0.12;98.67
49341;BME280;35209;51.050;13.678;2024-01-16T04:37:45;148630.19;;;-0.15;98.54
49341;BME280;35209;51.050;13.678;2024-01-16T04:42:47;148666.03;;;-0.01;95.17
49341;BME280;35209;51.050;13.678;2024-01-16T04:47:49;148678.81;;;0.04;93.77
49341;BME280;35209;51.050;13.678;2024-01-16T04:52:51;148712.09;;;0.17;91.25
49341;BME280;35209;51.050;13.678;2024-01-16T04:57:56;148681.41;;;0.05;92.37
49341;BME280;35209;51.050;13.678;2024-01-16T05:02:58;148712.09;;;0.17;91.23
49341;BME280;35209;51.050;13.678;2024-01-16T05:08:03;148680.13;;;0.05;92.70
49341;BME280;35209;51.050;13.678;2024-01-16T05:13:05;148689.06;;;0.08;91.63
49341;BME280;35209;51.050;13.678;2024-01-16T05:18:06;148692.94;;;0.10;89.68
49341;BME280;35209;51.050;13.678;2024-01-16T05:23:08;148721.06;;;0.21;87.83
49341;BME280;35209;51.050;13.678;2024-01-16T05:28:10;148692.94;;;0.10;86.21
49341;BME280;35209;51.050;13.678;2024-01-16T05:33:12;148755.66;;;0.35;83.96
49341;BME280;35209;51.050;13.678;2024-01-16T05:38:14;148718.53;;;0.20;85.42
49341;BME280;35209;51.050;13.678;2024-01-16T05:43:16;148713.44;;;0.18;84.55
49341;BME280;35209;51.050;13.678;2024-01-16T05:48:18;148712.09;;;0.17;84.59
49341;BME280;35209;51.050;13.678;2024-01-16T05:53:21;148733.88;;;0.26;84.50
49341;BME280;35209;51.050;13.678;2024-01-16T05:58:22;148683.97;;;0.06;86.88
49341;BME280;35209;51.050;13.678;2024-01-16T06:03:24;148698.03;;;0.12;87.22
49341;BME280;35209;51.050;13.678;2024-01-16T06:08:26;148649.41;;;-0.08;90.94
49341;BME280;35209;51.050;13.678;2024-01-16T06:13:28;148594.38;;;-0.30;100.00
49341;BME280;35209;51.050;13.678;2024-01-16T06:18:31;148548.31;;;-0.48;100.00
49341;BME280;35209;51.050;13.678;2024-01-16T06:23:33;148536.78;;;-0.53;100.00
49341;BME280;35209;51.050;13.678;2024-01-16T06:28:35;148562.38;;;-0.42;100.00
49341;BME280;35209;51.050;13.678;2024-01-16T06:33:37;148563.63;;;-0.42;97.60
49341;BME280;35209;51.050;13.678;2024-01-16T06:38:39;148573.88;;;-0.38;96.88
49341;BME280;35209;51.050;13.678;2024-01-16T06:43:42;148594.38;;;-0.30;95.23
49341;BME280;35209;51.050;13.678;2024-01-16T06:48:44;148599.47;;;-0.28;95.66
49341;BME280;35209;51.050;13.678;2024-01-16T06:53:46;148591.81;;;-0.31;97.40
49341;BME280;35209;51.050;13.678;2024-01-16T06:58:48;148564.91;;;-0.41;97.21
49341;BME280;35209;51.050;13.678;2024-01-16T07:03:49;148585.41;;;-0.33;93.74
49341;BME280;35209;51.050;13.678;2024-01-16T07:08:51;148595.66;;;-0.29;90.78
49341;BME280;35209;51.050;13.678;2024-01-16T07:13:53;148587.94;;;-0.32;90.50
49341;BME280;35209;51.050;13.678;2024-01-16T07:18:55;148618.69;;;-0.20;88.75
49341;BME280;35209;51.050;13.678;2024-01-16T07:23:57;148610.97;;;-0.23;87.64
49341;BME280;35209;51.050;13.678;2024-01-16T07:28:59;148627.66;;;-0.16;86.48
49341;BME280;35209;51.050;13.678;2024-01-16T07:34:01;148634.03;;;-0.14;85.33
49341;BME280;35209;51.050;13.678;2024-01-16T07:39:03;148630.19;;;-0.15;83.87
49341;BME280;35209;51.050;13.678;2024-01-16T07:44:05;148650.69;;;-0.07;83.50
49341;BME280;35209;51.050;13.678;2024-01-16T07:49:07;148689.06;;;0.08;81.05
49341;BME280;35209;51.050;13.678;2024-01-16T07:54:10;148649.41;;;-0.08;82.48
49341;BME280;35209;51.050;13.678;2024-01-16T07:59:12;148666.03;;;-0.01;81.86
49341;BME280;35209;51.050;13.678;2024-01-16T08:04:14;148671.19;;;0.01;81.59
49341;BME280;35209;51.050;13.678;2024-01-16T08:09:15;148683.97;;;0.06;81.16
49341;BME280;35209;51.050;13.678;2024-01-16T08:14:17;148687.78;;;0.08;81.80
49341;BME280;35209;51.050;13.678;2024-01-16T08:19:19;148678.81;;;0.04;80.86
49341;BME280;35209;51.050;13.678;2024-01-16T08:24:22;148678.81;;;0.04;81.75
49341;BME280;35209;51.050;13.678;2024-01-16T08:29:24;148657.06;;;-0.05;81.94
49341;BME280;35209;51.050;13.678;2024-01-16T08:34:26;148657.06;;;-0.05;83.10
49341;BME280;35209;51.050;13.678;2024-01-16T08:39:29;148668.63;;;0.00;81.61
49341;BME280;35209;51.050;13.678;2024-01-16T08:44:34;148717.25;;;0.19;80.66
49341;BME280;35209;51.050;13.678;2024-01-16T08:49:36;148700.59;;;0.13;81.17
49341;BME280;35209;51.050;13.678;2024-01-16T08:54:40;148746.72;;;0.31;80.46
49341;BME280;35209;51.050;13.678;2024-01-16T08:59:42;148698.03;;;0.12;80.67
49341;BME280;35209;51.050;13.678;2024-01-16T09:04:44;148717.25;;;0.19;80.39
49341;BME280;35209;51.050;13.678;2024-01-16T09:09:47;148698.03;;;0.12;80.23
49341;BME280;35209;51.050;13.678;2024-01-16T09:14:48;148708.28;;;0.16;79.97
49341;BME280;35209;51.050;13.678;2024-01-16T09:19:50;148749.28;;;0.32;79.76
49341;BME280;35209;51.050;13.678;2024-01-16T09:24:53;148772.31;;;0.41;79.46
49341;BME280;35209;51.050;13.678;2024-01-16T09:29:54;148764.63;;;0.38;77.90
49341;BME280;35209;51.050;13.678;2024-01-16T09:34:56;148778.69;;;0.44;78.97
49341;BME280;35209;51.050;13.678;2024-01-16T09:40:00;148745.41;;;0.31;79.58
49341;BME280;35209;51.050;13.678;2024-01-16T09:45:02;148758.25;;;0.36;79.09
49341;BME280;35209;51.050;13.678;2024-01-16T09:50:06;148772.31;;;0.41;77.86
49341;BME280;35209;51.050;13.678;2024-01-16T09:55:08;148805.63;;;0.55;78.03
49341;BME280;35209;51.050;13.678;2024-01-16T10:00:12;148859.41;;;0.76;76.50
49341;BME280;35209;51.050;13.678;2024-01-16T10:05:14;148847.91;;;0.71;76.19
49341;BME280;35209;51.050;13.678;2024-01-16T10:10:16;148863.25;;;0.78;76.85
49341;BME280;35209;51.050;13.678;2024-01-16T10:15:27;148850.44;;;0.72;75.76
49341;BME280;35209;51.050;13.678;2024-01-16T10:20:33;148851.72;;;0.73;75.91
49341;BME280;35209;51.050;13.678;2024-01-16T10:25:36;148905.53;;;0.94;73.51
49341;BME280;35209;51.050;13.678;2024-01-16T10:30:39;148851.72;;;0.73;74.71
49341;BME280;35209;51.050;13.678;2024-01-16T10:35:41;148868.34;;;0.80;74.02
49341;BME280;35209;51.050;13.678;2024-01-16T10:40:43;148868.34;;;0.80;73.59
49341;BME280;35209;51.050;13.678;2024-01-16T10:45:44;148864.53;;;0.78;73.84
49341;BME280;35209;51.050;13.678;2024-01-16T10:50:48;148904.25;;;0.94;74.13
49341;BME280;35209;51.050;13.678;2024-01-16T10:55:53;148904.25;;;0.94;72.28
49341;BME280;35209;51.050;13.678;2024-01-16T11:00:57;148911.91;;;0.97;71.97
49341;BME280;35209;51.050;13.678;2024-01-16T11:06:05;148961.91;;;1.17;71.81
49341;BME280;35209;51.050;13.678;2024-01-16T11:11:08;148959.34;;;1.16;70.87
49341;BME280;35209;51.050;13.678;2024-01-16T11:16:11;148988.81;;;1.27;70.34
49341;BME280;35209;51.050;13.678;2024-01-16T11:21:14;149019.56;;;1.40;70.41
49341;BME280;35209;51.050;13.678;2024-01-16T11:26:30;149104.19;;;1.73;68.60
49341;BME280;35209;51.050;13.678;2024-01-16T11:31:35;149066.97;;;1.59;70.10
49341;BME280;35209;51.050;13.678;2024-01-16T11:36:50;149147.78;;;1.91;66.99
49341;BME280;35209;51.050;13.678;2024-01-16T11:41:58;149210.59;;;2.16;66.27
49341;BME280;35209;51.050;13.678;2024-01-16T11:47:02;149197.78;;;2.11;66.61
49341;BME280;35209;51.050;13.678;2024-01-16T11:52:04;149169.59;;;1.99;66.75
49341;BME280;35209;51.050;13.678;2024-01-16T12:02:52;149081.13;;;1.64;68.54
49341;BME280;35209;51.050;13.678;2024-01-16T12:07:55;149005.47;;;1.34;68.93
49341;BME280;35209;51.050;13.678;2024-01-16T12:13:00;149010.59;;;1.36;69.08
49341;BME280;35209;51.050;13.678;2024-01-16T12:18:06;149029.81;;;1.44;69.47
49341;BME280;35209;51.050;13.678;2024-01-16T12:23:20;149058.03;;;1.55;67.94
49341;BME280;35209;51.050;13.678;2024-01-16T12:28:24;149005.47;;;1.34;68.25
49341;BME280;35209;51.050;13.678;2024-01-16T12:33:34;149001.59;;;1.33;68.32
49341;BME280;35209;51.050;13.678;2024-01-16T12:38:36;148960.63;;;1.16;69.41
49341;BME280;35209;51.050;13.678;2024-01-16T12:43:38;148927.31;;;1.03;71.00
49341;BME280;35209;51.050;13.678;2024-01-16T12:48:40;148917.06;;;0.99;70.46
49341;BME280;35209;51.050;13.678;2024-01-16T12:54:13;148928.59;;;1.04;69.60
49341;BME280;35209;51.050;13.678;2024-01-16T12:59:16;148943.94;;;1.10;68.67
49341;BME280;35209;51.050;13.678;2024-01-16T13:04:18;148902.97;;;0.93;70.27
49341;BME280;35209;51.050;13.678;2024-01-16T13:09:22;148867.06;;;0.79;71.01
49341;BME280;35209;51.050;13.678;2024-01-16T13:14:24;148897.84;;;0.91;69.94
49341;BME280;35209;51.050;13.678;2024-01-16T13:19:27;148915.78;;;0.98;71.35
49341;BME280;35209;51.050;13.678;2024-01-16T13:24:31;148941.41;;;1.09;69.55
49341;BME280;35209;51.050;13.678;2024-01-16T13:29:32;148967.00;;;1.19;69.48
49341;BME280;35209;51.050;13.678;2024-01-16T13:34:39;148987.53;;;1.27;69.25
49341;BME280;35209;51.050;13.678;2024-01-16T13:39:44;148995.22;;;1.30;70.27
49341;BME280;35209;51.050;13.678;2024-01-16T13:44:46;149018.28;;;1.39;69.19
49341;BME280;35209;51.050;13.678;2024-01-16T13:49:48;148979.88;;;1.24;70.98
49341;BME280;35209;51.050;13.678;2024-01-16T13:54:50;149029.81;;;1.44;68.84
49341;BME280;35209;51.050;13.678;2024-01-16T13:59:52;148992.66;;;1.29;70.96
49341;BME280;35209;51.050;13.678;2024-01-16T14:04:55;149010.59;;;1.36;69.41
49341;BME280;35209;51.050;13.678;2024-01-16T14:09:57;149026.00;;;1.42;69.80
49341;BME280;35209;51.050;13.678;2024-01-16T14:14:59;148972.16;;;1.21;69.80
49341;BME280;35209;51.050;13.678;2024-01-16T14:20:02;149022.13;;;1.41;69.08
49341;BME280;35209;51.050;13.678;2024-01-16T14:25:07;149000.34;;;1.32;69.94
49341;BME280;35209;51.050;13.678;2024-01-16T14:30:14;149001.59;;;1.33;69.35
49341;BME280;35209;51.050;13.678;2024-01-16T14:35:16;148955.47;;;1.14;70.22
49341;BME280;35209;51.050;13.678;2024-01-16T14:40:19;148976.00;;;1.22;69.40
49341;BME280;35209;51.050;13.678;2024-01-16T14:45:27;148987.53;;;1.27;68.78
49341;BME280;35209;51.050;13.678;2024-01-16T14:50:29;148943.94;;;1.10;69.96
49341;BME280;35209;51.050;13.678;2024-01-16T14:55:32;148868.34;;;0.80;72.48
49341;BME280;35209;51.050;13.678;2024-01-16T15:00:34;148914.50;;;0.98;70.25
49341;BME280;35209;51.050;13.678;2024-01-16T15:05:36;148876.06;;;0.83;71.37
49341;BME280;35209;51.050;13.678;2024-01-16T15:10:38;148831.22;;;0.65;72.21
49341;BME280;35209;51.050;13.678;2024-01-16T15:15:40;148856.81;;;0.75;71.61
49341;BME280;35209;51.050;13.678;2024-01-16T15:20:42;148783.84;;;0.46;73.11
49341;BME280;35209;51.050;13.678;2024-01-16T15:25:44;148742.84;;;0.30;73.72
49341;BME280;35209;51.050;13.678;2024-01-16T15:30:46;148746.72;;;0.31;73.36
49341;BME280;35209;51.050;13.678;2024-01-16T15:35:49;148721.06;;;0.21;74.11
49341;BME280;35209;51.050;13.678;2024-01-16T15:40:50;148676.28;;;0.03;75.42
49341;BME280;35209;51.050;13.678;2024-01-16T15:45:52;148666.03;;;-0.01;75.24
49341;BME280;35209;51.050;13.678;2024-01-16T15:50:54;148632.75;;;-0.14;76.12
49341;BME280;35209;51.050;13.678;2024-01-16T15:55:56;148616.13;;;-0.21;77.50
49341;BME280;35209;51.050;13.678;2024-01-16T16:00:58;148644.25;;;-0.10;77.31
49341;BME280;35209;51.050;13.678;2024-01-16T16:06:01;148626.38;;;-0.17;77.75
49341;BME280;35209;51.050;13.678;2024-01-16T16:11:03;148610.97;;;-0.23;78.21
49341;BME280;35209;51.050;13.678;2024-01-16T16:16:05;148675.00;;;0.03;76.61
49341;BME280;35209;51.050;13.678;2024-01-16T16:21:07;148631.47;;;-0.15;77.43
49341;BME280;35209;51.050;13.678;2024-01-16T16:26:09;148645.53;;;-0.09;77.22
49341;BME280;35209;51.050;13.678;2024-01-16T16:31:10;148634.03;;;-0.14;77.79
49341;BME280;35209;51.050;13.678;2024-01-16T16:36:12;148616.13;;;-0.21;78.82
49341;BME280;35209;51.050;13.678;2024-01-16T16:41:17;148646.88;;;-0.09;79.18
49341;BME280;35209;51.050;13.678;2024-01-16T16:46:22;148659.66;;;-0.04;79.56
49341;BME280;35209;51.050;13.678;2024-01-16T16:51:27;148686.50;;;0.07;79.73
49341;BME280;35209;51.050;13.678;2024-01-16T16:56:29;148708.28;;;0.16;79.36
49341;BME280;35209;51.050;13.678;2024-01-16T17:01:34;148677.53;;;0.04;80.66
49341;BME280;35209;51.050;13.678;2024-01-16T17:06:40;148723.63;;;0.22;79.13
49341;BME280;35209;51.050;13.678;2024-01-16T17:11:42;148719.81;;;0.20;79.27
49341;BME280;35209;51.050;13.678;2024-01-16T17:16:44;148759.53;;;0.36;77.25
49341;BME280;35209;51.050;13.678;2024-01-16T17:21:46;148737.75;;;0.28;77.72
49341;BME280;35209;51.050;13.678;2024-01-16T17:26:48;148676.28;;;0.03;78.81
49341;BME280;35209;51.050;13.678;2024-01-16T17:31:49;148709.56;;;0.16;77.37
49341;BME280;35209;51.050;13.678;2024-01-16T17:36:51;148662.19;;;-0.03;77.54
49341;BME280;35209;51.050;13.678;2024-01-16T17:41:53;148659.66;;;-0.04;78.16
49341;BME280;35209;51.050;13.678;2024-01-16T17:46:55;148658.38;;;-0.04;77.92
49341;BME280;35209;51.050;13.678;2024-01-16T17:51:57;148658.38;;;-0.04;77.61
49341;BME280;35209;51.050;13.678;2024-01-16T17:56:59;148667.28;;;-0.01;76.92
49341;BME280;35209;51.050;13.678;2024-01-16T18:02:01;148612.25;;;-0.22;78.42
49341;BME280;35209;51.050;13.678;2024-01-16T18:07:04;148582.84;;;-0.34;78.93
49341;BME280;35209;51.050;13.678;2024-01-16T18:12:06;148572.59;;;-0.38;78.67
49341;BME280;35209;51.050;13.678;2024-01-16T18:17:08;148549.59;;;-0.47;78.90
49341;BME280;35209;51.050;13.678;2024-01-16T18:22:13;148568.78;;;-0.40;77.56
49341;BME280;35209;51.050;13.678;2024-01-16T18:27:15;148572.59;;;-0.38;78.02
49341;BME280;35209;51.050;13.678;2024-01-16T18:32:17;148555.94;;;-0.45;77.46
49341;BME280;35209;51.050;13.678;2024-01-16T18:37:19;148557.22;;;-0.44;77.03
49341;BME280;35209;51.050;13.678;2024-01-16T18:42:22;148600.75;;;-0.27;76.01
49341;BME280;35209;51.050;13.678;2024-01-16T18:47:24;148596.91;;;-0.29;76.18
49341;BME280;35209;51.050;13.678;2024-01-16T18:52:26;148547.03;;;-0.48;77.39
49341;BME280;35209;51.050;13.678;2024-01-16T18:57:28;148554.69;;;-0.45;77.38
49341;BME280;35209;51.050;13.678;2024-01-16T19:02:30;148485.59;;;-0.73;79.12
49341;BME280;35209;51.050;13.678;2024-01-16T19:07:32;148497.09;;;-0.68;78.50
49341;BME280;35209;51.050;13.678;2024-01-16T19:12:35;148470.25;;;-0.79;78.90
49341;BME280;35209;51.050;13.678;2024-01-16T19:17:37;148442.09;;;-0.90;79.72
49341;BME280;35209;51.050;13.678;2024-01-16T19:22:40;148422.88;;;-0.98;80.44
49341;BME280;35209;51.050;13.678;2024-01-16T19:27:43;148425.50;;;-0.97;80.41
49341;BME280;35209;51.050;13.678;2024-01-16T19:32:50;148399.88;;;-1.07;80.77
49341;BME280;35209;51.050;13.678;2024-01-16T19:37:52;148393.50;;;-1.10;80.01
49341;BME280;35209;51.050;13.678;2024-01-16T19:42:54;148344.88;;;-1.29;80.88
49341;BME280;35209;51.050;13.678;2024-01-16T19:47:56;148311.63;;;-1.42;81.43
49341;BME280;35209;51.050;13.678;2024-01-16T19:52:58;148291.22;;;-1.50;81.62
49341;BME280;35209;51.050;13.678;2024-01-16T19:58:01;148316.78;;;-1.40;80.16
49341;BME280;35209;51.050;13.678;2024-01-16T20:03:04;148261.81;;;-1.62;80.88
49341;BME280;35209;51.050;13.678;2024-01-16T20:08:09;148264.34;;;-1.61;80.60
49341;BME280;35209;51.050;13.678;2024-01-16T20:13:14;148287.34;;;-1.52;79.33
49341;BME280;35209;51.050;13.678;2024-01-16T20:18:16;148268.16;;;-1.60;79.08
49341;BME280;35209;51.050;13.678;2024-01-16T20:23:19;148228.56;;;-1.75;79.14
49341;BME280;35209;51.050;13.678;2024-01-16T20:28:21;148222.16;;;-1.78;79.47
49341;BME280;35209;51.050;13.678;2024-01-16T20:33:23;148195.34;;;-1.89;79.44
49341;BME280;35209;51.050;13.678;2024-01-16T20:38:26;148209.38;;;-1.83;78.76
49341;BME280;35209;51.050;13.678;2024-01-16T20:43:28;148164.66;;;-2.01;79.20
49341;BME280;35209;51.050;13.678;2024-01-16T20:48:31;148191.50;;;-1.90;78.19
49341;BME280;35209;51.050;13.678;2024-01-16T20:53:34;148185.09;;;-1.93;77.69
49341;BME280;35209;51.050;13.678;2024-01-16T20:58:36;148135.25;;;-2.13;78.91
49341;BME280;35209;51.050;13.678;2024-01-16T21:03:40;148122.47;;;-2.18;78.92
49341;BME280;35209;51.050;13.678;2024-01-16T21:08:41;148100.75;;;-2.26;79.72
49341;BME280;35209;51.050;13.678;2024-01-16T21:13:43;148131.41;;;-2.14;78.12
49341;BME280;35209;51.050;13.678;2024-01-16T21:18:45;148118.66;;;-2.19;78.15
49341;BME280;35209;51.050;13.678;2024-01-16T21:23:47;148091.84;;;-2.30;78.49
49341;BME280;35209;51.050;13.678;2024-01-16T21:28:49;148099.47;;;-2.27;78.09
49341;BME280;35209;51.050;13.678;2024-01-16T21:33:51;148076.47;;;-2.36;78.15
49341;BME280;35209;51.050;13.678;2024-01-16T21:38:53;148066.25;;;-2.40;78.16
49341;BME280;35209;51.050;13.678;2024-01-16T21:43:56;148007.50;;;-2.64;78.68
49341;BME280;35209;51.050;13.678;2024-01-16T21:48:58;147981.97;;;-2.74;79.32
49341;BME280;35209;51.050;13.678;2024-01-16T21:54:00;148004.97;;;-2.65;78.78
49341;BME280;35209;51.050;13.678;2024-01-16T21:59:04;148021.56;;;-2.58;77.78
49341;BME280;35209;51.050;13.678;2024-01-16T22:04:06;148022.81;;;-2.58;77.32
49341;BME280;35209;51.050;13.678;2024-01-16T22:09:09;148010.06;;;-2.63;77.20
49341;BME280;35209;51.050;13.678;2024-01-16T22:14:15;148024.09;;;-2.57;76.59
49341;BME280;35209;51.050;13.678;2024-01-16T22:19:18;147990.88;;;-2.70;77.32
49341;BME280;35209;51.050;13.678;2024-01-16T22:24:23;147997.28;;;-2.68;77.01
49341;BME280;35209;51.050;13.678;2024-01-16T22:29:25;148003.69;;;-2.65;76.44
49341;BME280;35209;51.050;13.678;2024-01-16T22:34:27;148016.47;;;-2.60;76.14
49341;BME280;35209;51.050;13.678;2024-01-16T22:39:29;147973.03;;;-2.77;76.31
49341;BME280;35209;51.050;13.678;2024-01-16T22:44:31;147941.09;;;-2.90;77.08
49341;BME280;35209;51.050;13.678;2024-01-16T22:49:33;147896.41;;;-3.08;77.66
49341;BME280;35209;51.050;13.678;2024-01-16T22:54:36;147942.38;;;-2.90;76.85
49341;BME280;35209;51.050;13.678;2024-01-16T22:59:38;147913.00;;;-3.01;77.78
49341;BME280;35209;51.050;13.678;2024-01-16T23:04:40;147886.19;;;-3.12;77.38
49341;BME280;35209;51.050;13.678;2024-01-16T23:09:43;147891.28;;;-3.10;77.58
49341;BME280;35209;51.050;13.678;2024-01-16T23:14:44;147883.66;;;-3.13;77.15
49341;BME280;35209;51.050;13.678;2024-01-16T23:19:46;147872.19;;;-3.18;77.76
49341;BME280;35209;51.050;13.678;2024-01-16T23:24:48;147863.22;;;-3.21;77.79
49341;BME280;35209;51.050;13.678;2024-01-16T23:29:50;147819.81;;;-3.39;78.49
49341;BME280;35209;51.050;13.678;2024-01-16T23:34:52;147767.47;;;-3.60;79.82
49341;BME280;35209;51.050;13.678;2024-01-16T23:39:55;147869.59;;;-3.19;77.98
49341;BME280;35209;51.050;13.678;2024-01-16T23:44:57;147803.22;;;-3.45;80.10
49341;BME280;35209;51.050;13.678;2024-01-16T23:49:59;147845.34;;;-3.28;78.94
49341;BME280;35209;51.050;13.678;2024-01-16T23:55:01;147785.38;;;-3.52;80.15
